Time;durP1;ratioP1;P1;durP2;ratioP2;P2;SDS_P1;SDS_P2;PMS_P1;PMS_P2;Temp;Humidity;BMP_temperature;BMP_pressure;BME280_temperature;BME280_humidity;BME280_pressure;Samples;Min_cycle;Max_cycle;Signal;HPM_P1;HPM_P2
2021/05/10 00:00:20;;;;;;;24.45;10.95;;;;;;;1.74;93.41;101790.39;1817668;79;20923;-40
2021/05/10 00:02:48;;;;;;;24.35;11.48;;;;;;;1.78;93.61;101790.13;1817679;79;20963;-40
2021/05/10 00:05:16;;;;;;;40.92;11.75;;;;;;;1.77;93.52;101790.94;1808209;79;21358;-40
2021/05/10 00:07:44;;;;;;;44.15;12.05;;;;;;;1.74;93.30;101792.95;1785505;80;21049;-40
2021/05/10 00:10:13;;;;;;;57.10;12.28;;;;;;;1.67;93.07;101789.30;1785502;80;20955;-40
2021/05/10 00:12:42;;;;;;;66.60;12.30;;;;;;;1.64;93.08;101789.58;1785539;80;21511;-40
2021/05/10 00:15:11;;;;;;;43.48;11.20;;;;;;;1.61;93.26;101791.59;1785529;80;21065;-40
2021/05/10 00:17:39;;;;;;;33.42;11.90;;;;;;;1.58;93.26;101790.20;1785649;80;21578;-40
2021/05/10 00:20:08;;;;;;;28.00;10.98;;;;;;;1.52;93.19;101795.06;1785447;80;21065;-40
2021/05/10 00:22:35;;;;;;;20.72;11.00;;;;;;;1.52;93.44;101789.96;1785380;80;20934;-40
2021/05/10 00:25:04;;;;;;;20.35;8.98;;;;;;;1.51;93.50;101800.56;1785511;80;20947;-40
2021/05/10 00:27:32;;;;;;;16.32;9.35;;;;;;;1.50;93.56;101803.06;1785586;80;20986;-40
2021/05/10 00:30:00;;;;;;;16.77;9.48;;;;;;;1.48;93.65;101799.16;1785530;80;21486;-40
2021/05/10 00:32:27;;;;;;;18.65;9.20;;;;;;;1.51;93.78;101793.32;1785525;80;21093;-40
2021/05/10 00:34:57;;;;;;;18.45;9.35;;;;;;;1.52;93.82;101799.78;1784365;80;21013;-40
2021/05/10 00:37:24;;;;;;;13.43;9.50;;;;;;;1.50;93.80;101790.30;1784883;80;21057;-40
2021/05/10 00:39:53;;;;;;;16.17;9.38;;;;;;;1.46;93.79;101799.51;1785006;80;20998;-40
2021/05/10 00:42:20;;;;;;;15.43;9.68;;;;;;;1.43;93.83;101795.56;1784930;80;21401;-40
2021/05/10 00:44:48;;;;;;;31.02;10.50;;;;;;;1.38;93.71;101792.81;1784870;79;21011;-40
2021/05/10 00:47:16;;;;;;;35.25;11.18;;;;;;;1.32;93.66;101800.22;1784915;80;20982;-40
2021/05/10 00:49:44;;;;;;;127.95;17.12;;;;;;;1.32;93.92;101798.09;1784866;80;21058;-40
2021/05/10 00:52:11;;;;;;;183.03;19.17;;;;;;;1.31;94.11;101798.48;1785019;80;21006;-40
2021/05/10 00:54:39;;;;;;;33.42;12.25;;;;;;;1.37;94.43;101791.48;1756824;80;21377;-40
2021/05/10 00:57:07;;;;;;;24.10;10.95;;;;;;;1.43;94.60;101792.62;1784859;80;20951;-40
2021/05/10 00:59:34;;;;;;;18.32;9.55;;;;;;;1.51;94.68;101795.45;1784981;80;21057;-40
2021/05/10 01:02:02;;;;;;;16.17;9.25;;;;;;;1.65;94.92;101793.48;1784925;80;21021;-40
2021/05/10 01:04:31;;;;;;;23.05;10.10;;;;;;;1.71;94.87;101793.72;1785017;80;20974;-40
2021/05/10 01:06:58;;;;;;;24.35;9.05;;;;;;;1.70;94.69;101794.92;1784895;79;21471;-40
2021/05/10 01:09:26;;;;;;;17.85;8.48;;;;;;;1.66;94.59;101793.95;1784908;80;21021;-40
2021/05/10 01:11:54;;;;;;;14.40;7.85;;;;;;;1.65;94.67;101790.93;1784973;80;21021;-41
2021/05/10 01:14:21;;;;;;;13.22;8.20;;;;;;;1.71;94.95;101789.89;1784893;79;21038;-40
2021/05/10 01:16:49;;;;;;;19.98;9.68;;;;;;;1.79;95.00;101795.30;1784984;80;20959;-40
2021/05/10 01:19:17;;;;;;;33.05;9.08;;;;;;;1.80;94.90;101782.11;1784927;80;21364;-40
2021/05/10 01:21:45;;;;;;;32.00;9.53;;;;;;;1.81;94.87;101787.69;1784479;80;20939;-41
2021/05/10 01:24:13;;;;;;;18.07;9.13;;;;;;;1.79;94.76;101787.64;1710693;80;21067;-40
2021/05/10 01:26:41;;;;;;;13.90;8.75;;;;;;;1.76;94.77;101790.05;1785376;80;21096;-40
2021/05/10 01:29:08;;;;;;;23.15;9.55;;;;;;;1.62;94.36;101786.95;1759266;80;20945;-40
2021/05/10 01:31:36;;;;;;;21.55;10.70;;;;;;;1.48;94.07;101789.37;1759245;80;21372;-40
2021/05/10 01:34:04;;;;;;;28.10;13.62;;;;;;;1.34;93.88;101793.92;1742840;80;21007;-40
2021/05/10 01:36:32;;;;;;;26.00;12.68;;;;;;;1.16;93.64;101790.21;1785459;79;21020;-40
2021/05/10 01:39:00;;;;;;;25.48;12.10;;;;;;;1.02;93.53;101787.94;1785369;80;21020;-40
2021/05/10 01:41:28;;;;;;;30.20;12.35;;;;;;;0.91;93.66;101791.72;1785347;80;20992;-40
2021/05/10 01:43:57;;;;;;;28.98;11.20;;;;;;;0.79;93.66;101794.20;1785400;80;21197;-40
2021/05/10 01:46:26;;;;;;;31.95;11.28;;;;;;;0.73;93.86;101798.15;1785328;80;21031;-40
2021/05/10 01:48:55;;;;;;;35.75;11.53;;;;;;;0.70;94.07;101806.13;1785362;80;21012;-40
2021/05/10 01:51:26;;;;;;;64.12;14.33;;;;;;;0.66;94.22;101799.16;1785390;80;20945;-40
2021/05/10 01:53:53;;;;;;;73.87;12.40;;;;;;;0.66;94.43;101802.13;1785457;80;21091;-40
2021/05/10 01:56:21;;;;;;;53.87;12.15;;;;;;;0.66;94.62;101800.86;1785471;80;21354;-40
2021/05/10 01:58:53;;;;;;;48.60;11.75;;;;;;;0.71;94.94;101805.75;1785407;80;21090;-40
2021/05/10 02:01:21;;;;;;;48.60;11.97;;;;;;;0.77;95.10;101810.25;1785494;80;21000;-40
2021/05/10 02:03:49;;;;;;;76.15;11.40;;;;;;;0.78;95.02;101806.89;1785346;80;21047;-40
2021/05/10 02:06:17;;;;;;;65.97;11.73;;;;;;;0.77;94.91;101813.66;1785383;80;20996;-40
2021/05/10 02:08:46;;;;;;;91.00;13.90;;;;;;;0.76;94.87;101813.19;1785456;80;21023;-40
2021/05/10 02:11:14;;;;;;;51.95;15.63;;;;;;;0.74;94.82;101817.35;1785354;80;21019;-40
2021/05/10 02:13:43;;;;;;;65.25;19.37;;;;;;;0.74;94.84;101813.53;1785414;80;21663;-40
2021/05/10 02:16:11;;;;;;;34.75;12.85;;;;;;;0.77;94.99;101814.93;1785402;80;20936;-40
2021/05/10 02:18:39;;;;;;;26.20;9.48;;;;;;;0.77;94.98;101821.30;1785453;80;21486;-40
2021/05/10 02:21:06;;;;;;;23.65;10.18;;;;;;;0.76;95.04;101821.22;1785442;80;21375;-40
2021/05/10 02:23:36;;;;;;;18.90;9.18;;;;;;;0.77;95.24;101822.58;1788204;79;21003;-40
2021/05/10 02:26:06;;;;;;;19.80;9.28;;;;;;;0.81;95.43;101818.50;1789828;80;21027;-40
2021/05/10 02:28:35;;;;;;;14.80;8.70;;;;;;;0.89;95.62;101823.52;1789850;80;21541;-40
2021/05/10 02:31:03;;;;;;;21.93;8.55;;;;;;;0.99;95.79;101824.79;1789847;80;21042;-40
2021/05/10 02:33:34;;;;;;;14.65;8.75;;;;;;;1.04;95.72;101832.23;1789891;80;21351;-40
2021/05/10 02:36:01;;;;;;;20.40;11.57;;;;;;;1.07;95.67;101834.91;1789900;80;21584;-40
2021/05/10 02:38:29;;;;;;;59.38;13.25;;;;;;;1.12;95.68;101833.41;1789833;80;21000;-40
2021/05/10 02:40:57;;;;;;;33.00;11.95;;;;;;;1.19;95.62;101837.53;1789767;80;21027;-40
2021/05/10 02:43:25;;;;;;;51.23;13.83;;;;;;;1.25;95.71;101842.46;1789892;80;21627;-40
2021/05/10 02:45:53;;;;;;;23.60;11.12;;;;;;;1.29;95.70;101843.09;1790007;80;22257;-40
2021/05/10 02:48:21;;;;;;;36.17;14.23;;;;;;;1.33;95.64;101841.94;1789748;80;21059;-40
2021/05/10 02:50:49;;;;;;;22.95;11.80;;;;;;;1.31;95.47;101839.30;1789817;80;20944;-40
2021/05/10 02:53:17;;;;;;;51.08;16.77;;;;;;;1.28;95.24;101841.34;1789739;80;21614;-40
2021/05/10 02:55:44;;;;;;;46.88;21.52;;;;;;;1.23;95.08;101842.80;1789905;80;20920;-40
2021/05/10 02:58:12;;;;;;;38.13;16.02;;;;;;;1.20;95.00;101846.50;1789888;80;21376;-40
2021/05/10 03:00:40;;;;;;;58.28;21.17;;;;;;;1.18;94.98;101844.72;1789847;80;21007;-40
2021/05/10 03:03:08;;;;;;;27.67;11.43;;;;;;;1.17;94.99;101851.48;1789752;80;21023;-41
2021/05/10 03:05:36;;;;;;;27.75;13.75;;;;;;;1.18;95.09;101853.22;1789797;80;21023;-40
2021/05/10 03:08:04;;;;;;;38.75;11.53;;;;;;;1.21;95.20;101852.49;1790060;80;20955;-40
2021/05/10 03:10:32;;;;;;;45.28;10.88;;;;;;;1.25;95.31;101852.66;1789894;80;21316;-40
2021/05/10 03:12:59;;;;;;;30.10;11.85;;;;;;;1.32;95.46;101855.08;1789812;80;21004;-40
2021/05/10 03:15:27;;;;;;;34.95;12.80;;;;;;;1.39;95.60;101857.49;1789859;80;21353;-40
2021/05/10 03:17:54;;;;;;;34.55;12.18;;;;;;;1.48;95.80;101864.67;1789864;80;20944;-40
2021/05/10 03:20:23;;;;;;;68.85;12.05;;;;;;;1.58;95.92;101870.61;1789893;80;21028;-40
2021/05/10 03:22:54;;;;;;;62.38;12.05;;;;;;;1.65;95.96;101869.19;1791976;79;22248;-40
2021/05/10 03:25:22;;;;;;;34.15;12.03;;;;;;;1.75;95.99;101874.27;1798764;79;20975;-40
2021/05/10 03:27:50;;;;;;;47.67;13.55;;;;;;;1.85;96.12;101875.09;1798793;79;21039;-40
2021/05/10 03:30:22;;;;;;;137.12;16.27;;;;;;;1.95;96.31;101867.00;1798761;79;21026;-40
2021/05/10 03:32:50;;;;;;;102.97;15.15;;;;;;;2.15;96.66;101874.16;1798838;79;21075;-40
2021/05/10 03:35:18;;;;;;;45.85;10.35;;;;;;;2.39;97.00;101868.26;1798808;79;21325;-40
2021/05/10 03:37:48;;;;;;;30.25;9.68;;;;;;;2.65;97.24;101866.20;1798725;79;20967;-40
2021/05/10 03:40:18;;;;;;;15.93;8.80;;;;;;;2.95;97.57;101877.95;1798664;79;21039;-40
2021/05/10 03:42:46;;;;;;;13.13;7.87;;;;;;;3.27;97.86;101876.08;1798871;79;21027;-40
2021/05/10 03:45:15;;;;;;;28.02;8.10;;;;;;;3.65;97.92;101877.76;1798847;79;21003;-40
2021/05/10 03:47:43;;;;;;;9.08;5.28;;;;;;;4.03;97.87;101883.66;1798811;79;21359;-40
2021/05/10 03:50:20;;;;;;;14.43;5.50;;;;;;;4.45;97.94;101886.23;1798706;79;20948;-40
2021/05/10 03:52:49;;;;;;;5.78;4.92;;;;;;;4.69;97.27;101883.50;1798810;79;21000;-40
2021/05/10 03:55:20;;;;;;;4.72;4.20;;;;;;;4.83;96.72;101880.05;1798765;79;21579;-41
2021/05/10 03:57:48;;;;;;;5.12;4.35;;;;;;;5.00;95.74;101881.79;1798753;79;20995;-40
2021/05/10 04:00:17;;;;;;;7.05;4.80;;;;;;;5.22;95.09;101884.94;1798737;79;21363;-40
2021/05/10 04:02:45;;;;;;;13.48;5.40;;;;;;;5.42;93.34;101882.89;1798673;79;21055;-40
2021/05/10 04:15:48;;;;;;;6.67;4.35;;;;;;;6.85;88.84;101875.85;1798876;79;21031;-40
2021/05/10 04:18:17;;;;;;;13.00;5.33;;;;;;;7.09;87.62;101878.45;1798954;79;20975;-40
2021/05/10 04:20:45;;;;;;;7.47;4.47;;;;;;;7.29;86.25;101883.11;1798911;79;21063;-40
2021/05/10 04:23:16;;;;;;;10.85;4.97;;;;;;;7.54;85.50;101886.97;1787545;79;21009;-40
2021/05/10 04:25:47;;;;;;;11.85;5.08;;;;;;;7.73;83.31;101889.86;1743199;82;21201;-39
2021/05/10 04:28:15;;;;;;;11.78;5.92;;;;;;;7.95;81.50;101888.92;1743122;82;21005;-39
2021/05/10 04:30:43;;;;;;;10.55;5.33;;;;;;;8.20;80.42;101887.55;1743267;82;21001;-39
2021/05/10 04:33:11;;;;;;;10.93;5.55;;;;;;;8.39;78.31;101891.28;1743202;81;20989;-39
2021/05/10 04:35:39;;;;;;;8.48;4.95;;;;;;;8.58;77.67;101896.28;1743239;82;21021;-41
2021/05/10 04:38:09;;;;;;;10.03;5.22;;;;;;;8.81;75.62;101891.84;1743285;82;22258;-39
2021/05/10 04:40:36;;;;;;;7.42;5.47;;;;;;;9.04;73.82;101891.23;1743150;82;20962;-39
2021/05/10 04:43:05;;;;;;;10.32;4.95;;;;;;;9.28;71.82;101894.92;1743154;82;21001;-39
2021/05/10 04:45:34;;;;;;;14.13;5.62;;;;;;;9.61;70.61;101900.84;1743214;82;21585;-39
2021/05/10 04:48:03;;;;;;;7.28;4.58;;;;;;;9.88;68.74;101894.56;1743246;82;21092;-39
2021/05/10 04:50:31;;;;;;;6.53;3.92;;;;;;;10.17;65.53;101896.48;1743177;82;21383;-39
2021/05/10 04:52:59;;;;;;;5.80;4.42;;;;;;;10.39;64.21;101889.73;1743164;82;21033;-39
2021/05/10 04:55:27;;;;;;;5.08;4.20;;;;;;;10.51;62.35;101892.84;1743253;82;21025;-39
2021/05/10 04:57:54;;;;;;;9.70;4.80;;;;;;;10.58;59.43;101895.00;1743222;81;21669;-40
2021/05/10 05:00:22;;;;;;;6.37;3.72;;;;;;;10.67;58.74;101898.06;1753375;81;20954;-40
2021/05/10 05:02:50;;;;;;;13.45;4.65;;;;;;;10.68;56.20;101893.33;1743218;82;22315;-40
2021/05/10 05:05:18;;;;;;;10.38;4.40;;;;;;;10.74;56.71;101892.92;1743140;81;20985;-39
2021/05/10 05:07:45;;;;;;;6.35;4.40;;;;;;;10.99;57.22;101892.13;1743200;82;21029;-39
2021/05/10 05:10:15;;;;;;;17.60;4.80;;;;;;;11.23;55.88;101889.16;1743016;82;21097;-40
2021/05/10 05:12:44;;;;;;;14.98;5.10;;;;;;;11.39;55.32;101889.62;1743174;82;20942;-40
2021/05/10 05:15:13;;;;;;;6.40;4.37;;;;;;;11.56;54.23;101889.62;1716027;82;21419;-40
2021/05/10 05:17:41;;;;;;;13.35;4.37;;;;;;;11.77;54.31;101890.08;1743154;82;21203;-40
2021/05/10 05:20:10;;;;;;;13.50;4.60;;;;;;;12.13;52.13;101893.96;1743299;82;21096;-40
2021/05/10 05:22:38;;;;;;;27.73;4.70;;;;;;;12.27;52.16;101887.44;1743112;82;21089;-40
2021/05/10 05:25:08;;;;;;;9.68;3.45;;;;;;;12.58;51.34;101888.63;1780966;79;21475;-40
2021/05/10 05:27:36;;;;;;;5.53;3.37;;;;;;;12.84;49.27;101882.45;1785720;80;21427;-40
2021/05/10 05:30:06;;;;;;;5.40;3.47;;;;;;;12.77;47.20;101887.25;1785691;80;20927;-40
2021/05/10 05:32:34;;;;;;;3.98;3.20;;;;;;;12.73;48.69;101884.22;1785738;80;20950;-40
2021/05/10 05:35:04;;;;;;;6.50;3.22;;;;;;;12.82;47.44;101889.39;1785637;80;20923;-40
2021/05/10 05:37:33;;;;;;;9.93;3.55;;;;;;;12.84;47.04;101885.05;1785809;80;21539;-40
2021/05/10 05:40:00;;;;;;;3.87;3.08;;;;;;;12.96;46.79;101882.81;1785708;80;21331;-40
2021/05/10 05:42:28;;;;;;;2.60;2.40;;;;;;;13.12;46.33;101878.80;1785818;80;20935;-40
2021/05/10 05:44:57;;;;;;;2.70;2.30;;;;;;;13.26;44.50;101880.02;1785731;80;21025;-40
2021/05/10 05:47:25;;;;;;;5.15;2.40;;;;;;;13.11;40.93;101879.68;1785658;80;20958;-40
2021/05/10 05:49:53;;;;;;;4.12;2.50;;;;;;;12.99;42.28;101884.52;1785734;80;21058;-40
2021/05/10 05:52:21;;;;;;;2.55;1.85;;;;;;;13.19;43.17;101885.27;1785615;80;21355;-40
2021/05/10 05:54:51;;;;;;;2.05;1.72;;;;;;;13.37;42.50;101882.96;1785595;80;20922;-40
2021/05/10 05:57:20;;;;;;;1.95;1.75;;;;;;;13.46;40.21;101878.63;1785767;80;21030;-40
2021/05/10 05:59:48;;;;;;;2.45;1.57;;;;;;;13.48;39.47;101881.62;1785630;80;20990;-41
2021/05/10 06:02:15;;;;;;;5.15;1.40;;;;;;;13.50;39.78;101878.56;1785697;79;20923;-40
2021/05/10 06:04:43;;;;;;;2.62;1.62;;;;;;;13.58;40.78;101878.95;1785665;79;21385;-40
2021/05/10 06:07:11;;;;;;;3.45;1.57;;;;;;;13.79;38.21;101875.30;1785687;80;21002;-40
2021/05/10 06:09:40;;;;;;;1.30;1.20;;;;;;;13.94;38.41;101875.58;1785644;80;20939;-40
2021/05/10 06:12:09;;;;;;;1.30;1.20;;;;;;;14.01;37.72;101877.23;1785645;80;21014;-41
2021/05/10 06:14:37;;;;;;;2.20;1.50;;;;;;;14.07;35.83;101870.69;1785738;80;20982;-41
2021/05/10 06:17:05;;;;;;;7.33;1.35;;;;;;;14.10;36.59;101865.87;1785719;80;21193;-41
2021/05/10 06:19:33;;;;;;;1.22;1.07;;;;;;;14.20;36.75;101863.61;1785631;80;21022;-41
2021/05/10 06:22:01;;;;;;;1.37;0.95;;;;;;;14.42;35.65;101852.06;1785682;80;20907;-41
2021/05/10 06:24:29;;;;;;;0.90;0.90;;;;;;;14.61;34.13;101861.38;1788943;79;20998;-41
2021/05/10 06:26:56;;;;;;;1.22;0.90;;;;;;;14.63;28.56;101857.00;1793042;80;20946;-41
2021/05/10 06:29:24;;;;;;;1.10;1.00;;;;;;;14.40;30.49;101860.34;1792970;80;21383;-41
2021/05/10 06:31:52;;;;;;;1.57;0.95;;;;;;;14.39;30.29;101847.73;1792829;80;20998;-39
2021/05/10 06:34:19;;;;;;;2.70;1.00;;;;;;;14.34;30.51;101862.14;1792839;80;21005;-40
2021/05/10 06:36:47;;;;;;;3.22;0.93;;;;;;;14.35;29.72;101857.36;1792902;80;21026;-40
2021/05/10 06:39:14;;;;;;;5.15;0.90;;;;;;;14.42;29.58;101853.36;1792937;80;21068;-40
2021/05/10 06:41:42;;;;;;;2.65;0.93;;;;;;;14.41;30.54;101844.70;1792872;80;22141;-40
2021/05/10 06:44:10;;;;;;;2.77;1.10;;;;;;;14.49;29.72;101848.48;1792788;80;20971;-40
2021/05/10 06:46:38;;;;;;;3.05;0.88;;;;;;;14.43;29.75;101848.58;1792926;80;20990;-41
2021/05/10 06:49:06;;;;;;;3.90;0.95;;;;;;;14.37;28.28;101845.17;1792917;80;20891;-41
2021/05/10 06:51:34;;;;;;;4.05;1.22;;;;;;;14.36;29.25;101842.14;1792959;80;20950;-41
2021/05/10 06:54:01;;;;;;;5.37;1.02;;;;;;;14.19;29.12;101851.47;1792883;80;22335;-41
2021/05/10 06:56:29;;;;;;;1.15;1.05;;;;;;;14.20;29.39;101839.29;1792737;80;21036;-41
2021/05/10 06:58:56;;;;;;;3.90;1.12;;;;;;;14.40;29.29;101839.50;1792884;80;21009;-41
2021/05/10 07:01:24;;;;;;;4.58;1.00;;;;;;;14.40;29.20;101847.31;1792919;80;21073;-41
2021/05/10 07:03:52;;;;;;;1.20;1.05;;;;;;;14.41;29.53;101838.19;1792954;80;20982;-40
2021/05/10 07:06:21;;;;;;;3.58;0.75;;;;;;;14.43;30.36;101826.44;1792860;78;21372;-42
2021/05/10 07:08:49;;;;;;;1.10;1.00;;;;;;;14.31;30.15;101830.93;1792849;80;20998;-39
2021/05/10 07:11:16;;;;;;;0.90;0.90;;;;;;;14.16;30.00;101833.70;1792988;80;21053;-39
2021/05/10 07:13:44;;;;;;;1.07;0.98;;;;;;;14.15;28.98;101830.68;1792810;80;20986;-39
2021/05/10 07:16:12;;;;;;;1.25;1.07;;;;;;;14.01;29.64;101842.09;1792990;80;20990;-39
2021/05/10 07:18:40;;;;;;;3.20;0.88;;;;;;;14.02;30.13;101834.73;1792901;80;21355;-39
2021/05/10 07:21:08;;;;;;;0.80;0.60;;;;;;;14.23;29.12;101828.84;1792791;80;21001;-39
2021/05/10 07:23:36;;;;;;;4.15;1.25;;;;;;;14.47;30.09;101830.72;1792876;80;20998;-39
2021/05/10 07:26:04;;;;;;;3.80;0.98;;;;;;;14.74;29.27;101839.08;1792750;80;21030;-39
2021/05/10 07:28:32;;;;;;;2.25;1.00;;;;;;;15.00;29.36;101835.23;1792864;80;21132;-40
2021/05/10 07:31:00;;;;;;;1.30;1.00;;;;;;;15.27;28.24;101835.68;1756956;81;21210;-40
2021/05/10 07:33:27;;;;;;;0.80;0.80;;;;;;;15.39;27.39;101845.94;1789788;80;20910;-40
2021/05/10 07:35:55;;;;;;;0.88;0.88;;;;;;;15.23;27.84;101831.83;1789800;80;21016;-40
2021/05/10 07:38:22;;;;;;;1.37;1.00;;;;;;;15.26;27.32;101833.96;1789753;80;21216;-39
2021/05/10 07:40:50;;;;;;;1.30;1.20;;;;;;;15.23;28.40;101824.45;1789776;80;20948;-40
2021/05/10 07:43:18;;;;;;;5.15;0.98;;;;;;;15.34;26.83;101816.45;1789807;80;21364;-40
2021/05/10 07:45:45;;;;;;;0.80;0.80;;;;;;;15.40;26.59;101815.47;1789948;80;21083;-40
2021/05/10 07:48:13;;;;;;;2.22;0.90;;;;;;;15.43;26.90;101808.47;1789931;80;20948;-41
2021/05/10 07:50:42;;;;;;;4.67;1.15;;;;;;;15.63;27.26;101809.41;1789836;80;20948;-41
2021/05/10 07:53:13;;;;;;;1.17;0.88;;;;;;;15.77;26.79;101807.00;1790029;80;21063;-41
2021/05/10 07:55:41;;;;;;;3.15;0.93;;;;;;;15.94;26.51;101811.92;1789998;80;21205;-40
2021/05/10 07:58:08;;;;;;;3.33;0.93;;;;;;;15.93;26.32;101807.17;1789937;80;20971;-41
2021/05/10 08:00:39;;;;;;;1.15;0.93;;;;;;;15.93;25.92;101811.08;1789944;80;21004;-41
2021/05/10 08:03:14;;;;;;;0.70;0.70;;;;;;;15.86;26.65;101801.59;1789892;80;21036;-40
2021/05/10 08:05:43;;;;;;;2.33;1.10;;;;;;;15.57;26.43;101793.02;1790056;80;21031;-41
2021/05/10 08:08:14;;;;;;;4.53;0.93;;;;;;;15.33;28.16;101796.02;1789940;80;21366;-41
2021/05/10 08:11:25;;;;;;;29.27;2.55;;;;;;;15.63;29.20;101788.98;1815847;78;22560;-41
2021/05/10 08:13:55;;;;;;;1.55;1.02;;;;;;;15.59;28.47;101789.94;1788380;80;20895;-41
2021/05/10 08:16:23;;;;;;;1.27;1.00;;;;;;;15.51;27.76;101787.00;1788878;80;21196;-40
2021/05/10 08:18:51;;;;;;;1.00;1.00;;;;;;;15.77;27.33;101779.59;1788847;80;21583;-40
2021/05/10 08:21:19;;;;;;;1.02;1.02;;;;;;;15.93;27.95;101765.82;1788938;80;21014;-40
2021/05/10 08:23:47;;;;;;;1.52;1.00;;;;;;;16.05;28.46;101767.32;1788824;80;21006;-41
2021/05/10 08:26:15;;;;;;;1.50;0.98;;;;;;;16.21;26.88;101760.89;1788903;80;20931;-40
2021/05/10 08:28:42;;;;;;;0.90;0.90;;;;;;;16.21;26.15;101747.84;1788896;80;21356;-41
2021/05/10 08:31:10;;;;;;;0.98;0.85;;;;;;;16.27;27.62;101754.66;1788794;80;20967;-41
2021/05/10 08:33:38;;;;;;;2.35;1.10;;;;;;;16.10;26.49;101741.96;1788864;80;21010;-41
2021/05/10 08:36:06;;;;;;;7.72;1.00;;;;;;;16.12;26.99;101749.78;1788798;80;20958;-41
2021/05/10 08:38:34;;;;;;;0.90;0.90;;;;;;;16.26;26.84;101750.78;1788907;80;20928;-41
2021/05/10 08:41:01;;;;;;;1.40;1.30;;;;;;;16.27;26.25;101744.20;1788904;80;21330;-41
2021/05/10 08:43:30;;;;;;;0.93;0.88;;;;;;;16.17;26.31;101730.94;1788778;80;21018;-41
2021/05/10 08:46:00;;;;;;;1.67;0.90;;;;;;;16.37;26.44;101738.33;1788882;80;21050;-41
2021/05/10 08:48:27;;;;;;;2.70;1.00;;;;;;;16.59;25.72;101737.41;1788911;80;21026;-41
2021/05/10 08:50:55;;;;;;;1.10;1.00;;;;;;;16.40;25.55;101729.58;1788833;80;20955;-42
2021/05/10 08:53:35;;;;;;;3.00;1.00;;;;;;;16.52;26.93;101732.77;1758470;80;21365;-41
2021/05/10 08:56:06;;;;;;;3.27;1.00;;;;;;;16.63;26.31;101729.03;1788834;80;20963;-42
2021/05/10 08:58:42;;;;;;;1.32;1.20;;;;;;;16.72;25.72;101714.89;1788994;80;20907;-41
2021/05/10 09:01:12;;;;;;;0.75;0.75;;;;;;;16.80;25.22;101729.95;1788800;80;21638;-41
2021/05/10 09:03:46;;;;;;;2.60;1.05;;;;;;;16.52;26.35;101721.44;1788872;80;20982;-41
2021/05/10 09:06:18;;;;;;;1.65;1.22;;;;;;;16.70;25.92;101706.23;1786506;80;21371;-41
2021/05/10 09:08:48;;;;;;;4.17;1.20;;;;;;;16.93;25.75;101703.06;1720859;83;21635;-41
2021/05/10 09:11:18;;;;;;;1.57;0.90;;;;;;;17.06;24.75;101703.63;1712804;83;21651;-41
2021/05/10 09:13:57;;;;;;;4.33;1.12;;;;;;;16.99;24.39;101703.36;1698606;84;21054;-39
2021/05/10 09:16:25;;;;;;;1.47;0.90;;;;;;;16.69;25.79;101692.31;1679913;85;21131;-40
2021/05/10 09:18:57;;;;;;;2.00;1.05;;;;;;;16.78;26.17;101692.51;1743808;81;21480;-40
2021/05/10 09:21:29;;;;;;;2.83;1.15;;;;;;;17.01;25.90;101687.17;1743298;82;20971;-40
2021/05/10 09:23:58;;;;;;;4.40;0.90;;;;;;;17.04;25.76;101702.78;1740680;82;21003;-41
2021/05/10 09:26:34;;;;;;;2.33;1.30;;;;;;;17.14;25.70;101694.25;1707752;84;21003;-41
2021/05/10 09:29:02;;;;;;;1.77;0.85;;;;;;;17.13;24.96;101680.33;1742953;82;21063;-41
2021/05/10 09:31:31;;;;;;;2.52;1.05;;;;;;;17.36;26.52;101675.77;1743242;82;21568;-40
2021/05/10 09:33:58;;;;;;;6.35;1.17;;;;;;;17.66;24.32;101667.94;1707823;84;22647;-41
2021/05/10 09:36:40;;;;;;;8.23;1.10;;;;;;;17.68;24.94;101670.53;1743213;82;21019;-41
2021/05/10 09:39:28;;;;;;;1.10;1.00;;;;;;;17.30;25.15;101659.38;1743044;82;21583;-41
2021/05/10 09:42:03;;;;;;;5.12;1.07;;;;;;;16.93;25.05;101659.45;1742320;82;20983;-41
2021/05/10 09:44:43;;;;;;;3.58;1.02;;;;;;;17.03;26.77;101660.09;1743201;82;21209;-42
2021/05/10 09:47:12;;;;;;;1.30;1.20;;;;;;;17.20;25.40;101653.56;1743165;82;21003;-42
2021/05/10 09:49:44;;;;;;;1.10;1.00;;;;;;;17.13;25.09;101662.02;1707677;83;21524;-41
2021/05/10 09:52:24;;;;;;;2.92;1.00;;;;;;;17.21;23.84;101653.97;1743211;82;20999;-42
2021/05/10 09:54:57;;;;;;;10.45;5.65;;;;;;;17.22;23.64;101657.84;1707779;84;20944;-41
2021/05/10 09:57:27;;;;;;;2.70;0.90;;;;;;;17.29;25.15;101642.84;1742943;82;21208;-41
2021/05/10 10:00:18;;;;;;;1.20;1.05;;;;;;;17.49;25.72;101650.58;1743130;82;21035;-41
2021/05/10 10:02:45;;;;;;;1.85;0.98;;;;;;;17.33;24.91;101633.98;1707695;83;21023;-41
2021/05/10 10:05:14;;;;;;;0.60;0.60;;;;;;;17.42;25.56;101634.19;1743146;81;21019;-41
2021/05/10 10:07:43;;;;;;;2.15;1.10;;;;;;;17.43;23.78;101637.20;1743259;82;20940;-41
2021/05/10 10:10:13;;;;;;;1.15;1.15;;;;;;;17.37;24.70;101642.63;1748956;81;21203;-41
2021/05/10 10:12:40;;;;;;;1.12;1.12;;;;;;;17.66;25.01;101638.30;1768120;81;20951;-41
2021/05/10 10:15:11;;;;;;;1.40;1.30;;;;;;;17.81;23.77;101637.86;1702100;84;21031;-41
2021/05/10 10:17:39;;;;;;;3.60;1.37;;;;;;;17.81;23.95;101624.77;1768203;81;21011;-41
2021/05/10 10:20:11;;;;;;;1.65;1.55;;;;;;;18.07;24.52;101627.06;1768154;81;21079;-41
2021/05/10 10:22:41;;;;;;;3.67;1.10;;;;;;;18.19;23.35;101629.75;1768173;81;22524;-41
2021/05/10 10:25:09;;;;;;;3.33;1.32;;;;;;;18.12;23.11;101627.37;1768095;81;21027;-42
2021/05/10 10:27:38;;;;;;;1.40;1.22;;;;;;;18.14;23.59;101622.47;1764786;81;21003;-41
2021/05/10 10:30:08;;;;;;;1.22;1.12;;;;;;;18.31;23.86;101612.74;1768106;81;21545;-40
2021/05/10 10:32:36;;;;;;;2.58;1.22;;;;;;;18.40;22.85;101610.75;1768035;81;21019;-41
2021/05/10 10:35:05;;;;;;;0.90;0.90;;;;;;;18.13;23.24;101614.20;1702118;84;21160;-41
2021/05/10 10:37:33;;;;;;;3.15;1.15;;;;;;;17.96;23.52;101619.94;1702148;84;21043;-41
2021/05/10 10:40:03;;;;;;;3.02;1.12;;;;;;;17.77;24.75;101600.86;1702106;84;21039;-41
2021/05/10 10:42:31;;;;;;;1.12;1.00;;;;;;;17.93;24.25;101592.07;1702101;84;21019;-41
2021/05/10 10:45:01;;;;;;;1.57;1.30;;;;;;;18.10;24.36;101606.44;1702251;84;21524;-41
2021/05/10 10:47:44;;;;;;;2.98;1.15;;;;;;;17.99;23.73;101600.67;1768133;80;21261;-41
2021/05/10 10:50:22;;;;;;;11.18;1.12;;;;;;;18.13;24.12;101590.62;1701992;84;20965;-41
2021/05/10 10:52:56;;;;;;;1.10;1.00;;;;;;;18.30;24.63;101587.44;1768111;81;21063;-41
2021/05/10 10:55:33;;;;;;;1.82;1.10;;;;;;;18.52;24.34;101581.05;1768071;81;20944;-40
2021/05/10 10:58:22;;;;;;;3.60;1.02;;;;;;;18.74;23.11;101567.63;1702237;84;21026;-41
2021/05/10 11:01:21;;;;;;;1.40;1.00;;;;;;;18.91;22.35;101583.64;1702240;84;21043;-41
2021/05/10 11:03:49;;;;;;;4.05;1.20;;;;;;;18.86;22.41;101569.84;1768170;81;21070;-41
2021/05/10 11:06:17;;;;;;;6.17;1.30;;;;;;;18.81;24.30;101562.56;1768033;81;21015;-42
2021/05/10 11:08:53;;;;;;;5.05;1.40;;;;;;;18.69;22.70;101559.92;1702033;84;21008;-42
2021/05/10 11:11:37;;;;;;;1.82;1.02;;;;;;;18.30;24.31;101554.69;1706580;83;21097;-42
2021/05/10 11:14:05;;;;;;;2.47;1.00;;;;;;;18.42;23.31;101553.41;1709917;84;21907;-41
2021/05/10 11:16:55;;;;;;;6.70;1.20;;;;;;;18.47;23.97;101567.69;1746197;80;21021;-41
2021/05/10 11:19:37;;;;;;;6.65;1.30;;;;;;;18.59;23.55;101567.72;1776286;80;21015;-41
2021/05/10 11:22:33;;;;;;;1.98;0.90;;;;;;;18.58;22.93;101568.63;1776337;80;21169;-41
2021/05/10 11:25:39;;;;;;;1.37;1.07;;;;;;;18.24;22.82;101549.66;1776264;80;21071;-42
2021/05/10 11:28:32;;;;;;;2.27;0.90;;;;;;;18.12;23.94;101565.80;1776306;80;21932;-41
2021/05/10 11:31:05;;;;;;;0.98;0.93;;;;;;;17.86;23.66;101555.20;1776215;80;21035;-42
2021/05/10 11:33:57;;;;;;;1.62;1.20;;;;;;;17.71;24.94;101545.23;1776280;80;21114;-41
2021/05/10 11:36:30;;;;;;;7.80;1.12;;;;;;;17.93;24.48;101545.40;1709920;83;21031;-41
2021/05/10 11:39:09;;;;;;;1.37;1.20;;;;;;;18.00;25.21;101544.28;1776324;80;21051;-41
2021/05/10 11:41:41;;;;;;;11.97;1.37;;;;;;;18.20;25.35;101535.82;1709956;84;21341;-41
2021/05/10 11:44:20;;;;;;;5.67;1.40;;;;;;;18.49;26.00;101539.66;1709975;84;21067;-42
2021/05/10 11:46:52;;;;;;;1.82;1.17;;;;;;;18.88;24.25;101536.98;1709932;84;21027;-41